sensor_id;sensor_type;location;lat;lon;timestamp;P1;durP1;ratioP1;P2;durP2;ratioP2
39404;SDS011;25121;51.090;17.038;2023-04-07T00:00:55;24.50;;;16.23;;
39404;SDS011;25121;51.090;17.038;2023-04-07T00:02:19;27.45;;;17.13;;
39404;SDS011;25121;51.090;17.038;2023-04-07T00:03:40;28.15;;;17.10;;
39404;SDS011;25121;51.090;17.038;2023-04-07T00:05:03;25.15;;;16.50;;
39404;SDS011;25121;51.090;17.038;2023-04-07T00:06:30;27.75;;;17.92;;
39404;SDS011;25121;51.090;17.038;2023-04-07T00:07:55;26.75;;;17.10;;
39404;SDS011;25121;51.090;17.038;2023-04-07T00:09:17;24.85;;;16.90;;
39404;SDS011;25121;51.090;17.038;2023-04-07T00:10:42;24.35;;;16.10;;
39404;SDS011;25121;51.090;17.038;2023-04-07T00:12:11;21.13;;;15.85;;
39404;SDS011;25121;51.090;17.038;2023-04-07T00:13:35;24.05;;;17.20;;
39404;SDS011;25121;51.090;17.038;2023-04-07T00:14:59;27.17;;;16.75;;
39404;SDS011;25121;51.090;17.038;2023-04-07T00:16:24;22.80;;;16.05;;
39404;SDS011;25121;51.090;17.038;2023-04-07T00:17:52;27.98;;;17.35;;
39404;SDS011;25121;51.090;17.038;2023-04-07T00:19:27;21.90;;;14.77;;
39404;SDS011;25121;51.090;17.038;2023-04-07T00:20:53;26.55;;;16.77;;
39404;SDS011;25121;51.090;17.038;2023-04-07T00:22:16;26.20;;;15.90;;
39404;SDS011;25121;51.090;17.038;2023-04-07T00:23:37;25.07;;;16.47;;
39404;SDS011;25121;51.090;17.038;2023-04-07T00:25:03;23.42;;;15.43;;
39404;SDS011;25121;51.090;17.038;2023-04-07T00:26:25;21.63;;;14.95;;
39404;SDS011;25121;51.090;17.038;2023-04-07T00:27:50;24.20;;;15.35;;
39404;SDS011;25121;51.090;17.038;2023-04-07T00:29:15;24.45;;;16.15;;
39404;SDS011;25121;51.090;17.038;2023-04-07T00:30:38;25.60;;;15.95;;
39404;SDS011;25121;51.090;17.038;2023-04-07T00:32:03;24.08;;;15.70;;
39404;SDS011;25121;51.090;17.038;2023-04-07T00:33:30;25.60;;;16.75;;
39404;SDS011;25121;51.090;17.038;2023-04-07T00:35:00;23.05;;;15.13;;
39404;SDS011;25121;51.090;17.038;2023-04-07T00:36:24;23.58;;;15.75;;
39404;SDS011;25121;51.090;17.038;2023-04-07T00:37:47;26.15;;;17.42;;
39404;SDS011;25121;51.090;17.038;2023-04-07T00:39:12;25.63;;;14.93;;
39404;SDS011;25121;51.090;17.038;2023-04-07T00:40:34;23.55;;;16.27;;
39404;SDS011;25121;51.090;17.038;2023-04-07T00:43:17;25.83;;;15.35;;
39404;SDS011;25121;51.090;17.038;2023-04-07T00:44:42;25.02;;;16.13;;
39404;SDS011;25121;51.090;17.038;2023-04-07T00:46:04;29.67;;;17.90;;
39404;SDS011;25121;51.090;17.038;2023-04-07T00:48:53;25.40;;;16.48;;
39404;SDS011;25121;51.090;17.038;2023-04-07T00:50:15;30.45;;;16.55;;
39404;SDS011;25121;51.090;17.038;2023-04-07T00:51:38;24.52;;;18.00;;
39404;SDS011;25121;51.090;17.038;2023-04-07T00:53:02;28.58;;;17.92;;
39404;SDS011;25121;51.090;17.038;2023-04-07T00:54:25;25.17;;;16.67;;
39404;SDS011;25121;51.090;17.038;2023-04-07T00:55:48;26.75;;;17.42;;
39404;SDS011;25121;51.090;17.038;2023-04-07T00:57:12;27.90;;;16.95;;
39404;SDS011;25121;51.090;17.038;2023-04-07T00:58:33;25.90;;;17.13;;
39404;SDS011;25121;51.090;17.038;2023-04-07T00:59:55;24.80;;;16.27;;
39404;SDS011;25121;51.090;17.038;2023-04-07T01:01:20;25.27;;;16.67;;
39404;SDS011;25121;51.090;17.038;2023-04-07T01:02:50;26.30;;;17.63;;
39404;SDS011;25121;51.090;17.038;2023-04-07T01:04:21;27.35;;;16.60;;
39404;SDS011;25121;51.090;17.038;2023-04-07T01:05:49;27.00;;;17.92;;
39404;SDS011;25121;51.090;17.038;2023-04-07T01:07:17;22.50;;;16.52;;
39404;SDS011;25121;51.090;17.038;2023-04-07T01:08:56;27.00;;;17.58;;
39404;SDS011;25121;51.090;17.038;2023-04-07T01:10:26;25.90;;;16.20;;
39404;SDS011;25121;51.090;17.038;2023-04-07T01:12:09;27.75;;;16.55;;
39404;SDS011;25121;51.090;17.038;2023-04-07T01:13:36;25.45;;;16.85;;
39404;SDS011;25121;51.090;17.038;2023-04-07T01:15:12;26.05;;;16.52;;
39404;SDS011;25121;51.090;17.038;2023-04-07T01:16:41;25.90;;;17.40;;
39404;SDS011;25121;51.090;17.038;2023-04-07T01:18:15;26.88;;;17.27;;
39404;SDS011;25121;51.090;17.038;2023-04-07T01:19:57;24.70;;;16.17;;
39404;SDS011;25121;51.090;17.038;2023-04-07T01:21:25;23.75;;;16.67;;
39404;SDS011;25121;51.090;17.038;2023-04-07T01:22:50;26.02;;;16.92;;
39404;SDS011;25121;51.090;17.038;2023-04-07T01:24:22;26.92;;;17.52;;
39404;SDS011;25121;51.090;17.038;2023-04-07T01:27:49;28.48;;;16.15;;
39404;SDS011;25121;51.090;17.038;2023-04-07T01:31:10;22.50;;;16.33;;
39404;SDS011;25121;51.090;17.038;2023-04-07T01:32:38;28.05;;;15.73;;
39404;SDS011;25121;51.090;17.038;2023-04-07T01:34:02;25.80;;;17.05;;
39404;SDS011;25121;51.090;17.038;2023-04-07T01:35:24;25.52;;;16.95;;
39404;SDS011;25121;51.090;17.038;2023-04-07T01:37:00;25.70;;;16.15;;
39404;SDS011;25121;51.090;17.038;2023-04-07T01:38:29;29.08;;;17.30;;
39404;SDS011;25121;51.090;17.038;2023-04-07T01:39:51;26.38;;;17.42;;
39404;SDS011;25121;51.090;17.038;2023-04-07T01:41:14;26.30;;;17.15;;
39404;SDS011;25121;51.090;17.038;2023-04-07T01:42:36;26.05;;;18.00;;
39404;SDS011;25121;51.090;17.038;2023-04-07T01:44:00;24.25;;;17.55;;
39404;SDS011;25121;51.090;17.038;2023-04-07T01:45:29;26.33;;;16.63;;
39404;SDS011;25121;51.090;17.038;2023-04-07T01:46:54;26.67;;;17.35;;
39404;SDS011;25121;51.090;17.038;2023-04-07T01:48:17;23.30;;;17.00;;
39404;SDS011;25121;51.090;17.038;2023-04-07T01:49:42;24.02;;;15.75;;
39404;SDS011;25121;51.090;17.038;2023-04-07T01:51:07;29.23;;;18.88;;
39404;SDS011;25121;51.090;17.038;2023-04-07T01:52:31;23.30;;;16.77;;
39404;SDS011;25121;51.090;17.038;2023-04-07T01:53:55;26.85;;;17.67;;
39404;SDS011;25121;51.090;17.038;2023-04-07T01:55:24;25.00;;;16.58;;
39404;SDS011;25121;51.090;17.038;2023-04-07T01:56:54;25.70;;;17.17;;
39404;SDS011;25121;51.090;17.038;2023-04-07T01:58:18;25.30;;;17.73;;
39404;SDS011;25121;51.090;17.038;2023-04-07T01:59:40;27.52;;;17.55;;
39404;SDS011;25121;51.090;17.038;2023-04-07T02:01:07;27.52;;;18.52;;
39404;SDS011;25121;51.090;17.038;2023-04-07T02:02:29;28.92;;;17.63;;
39404;SDS011;25121;51.090;17.038;2023-04-07T02:03:56;25.83;;;17.80;;
39404;SDS011;25121;51.090;17.038;2023-04-07T02:05:27;28.17;;;17.52;;
39404;SDS011;25121;51.090;17.038;2023-04-07T02:06:53;29.63;;;18.20;;
39404;SDS011;25121;51.090;17.038;2023-04-07T02:08:28;27.27;;;18.15;;
39404;SDS011;25121;51.090;17.038;2023-04-07T02:09:56;27.67;;;18.52;;
39404;SDS011;25121;51.090;17.038;2023-04-07T02:11:21;26.27;;;17.98;;
39404;SDS011;25121;51.090;17.038;2023-04-07T02:12:47;27.23;;;17.88;;
39404;SDS011;25121;51.090;17.038;2023-04-07T02:14:13;29.88;;;18.70;;
39404;SDS011;25121;51.090;17.038;2023-04-07T02:16:06;27.17;;;16.67;;
39404;SDS011;25121;51.090;17.038;2023-04-07T02:17:53;28.23;;;18.38;;
39404;SDS011;25121;51.090;17.038;2023-04-07T02:19:20;25.95;;;18.20;;
39404;SDS011;25121;51.090;17.038;2023-04-07T02:20:42;28.52;;;18.65;;
39404;SDS011;25121;51.090;17.038;2023-04-07T02:22:08;28.58;;;19.85;;
39404;SDS011;25121;51.090;17.038;2023-04-07T02:23:33;28.23;;;18.45;;
39404;SDS011;25121;51.090;17.038;2023-04-07T02:25:24;28.33;;;19.08;;
39404;SDS011;25121;51.090;17.038;2023-04-07T02:26:49;27.73;;;19.40;;
39404;SDS011;25121;51.090;17.038;2023-04-07T02:28:11;25.17;;;18.92;;
39404;SDS011;25121;51.090;17.038;2023-04-07T02:29:38;26.00;;;18.92;;
39404;SDS011;25121;51.090;17.038;2023-04-07T02:31:00;28.90;;;21.05;;
39404;SDS011;25121;51.090;17.038;2023-04-07T02:34:32;30.30;;;19.45;;
39404;SDS011;25121;51.090;17.038;2023-04-07T02:35:55;29.15;;;19.33;;
39404;SDS011;25121;51.090;17.038;2023-04-07T02:37:20;30.85;;;19.48;;
39404;SDS011;25121;51.090;17.038;2023-04-07T02:38:44;29.13;;;19.55;;
39404;SDS011;25121;51.090;17.038;2023-04-07T02:40:07;27.02;;;19.48;;
39404;SDS011;25121;51.090;17.038;2023-04-07T02:41:37;25.85;;;18.02;;
39404;SDS011;25121;51.090;17.038;2023-04-07T02:44:20;26.55;;;18.52;;
39404;SDS011;25121;51.090;17.038;2023-04-07T02:45:42;28.08;;;18.83;;
39404;SDS011;25121;51.090;17.038;2023-04-07T02:47:06;25.45;;;18.27;;
39404;SDS011;25121;51.090;17.038;2023-04-07T02:48:32;32.58;;;19.73;;
39404;SDS011;25121;51.090;17.038;2023-04-07T02:49:55;28.33;;;17.75;;
39404;SDS011;25121;51.090;17.038;2023-04-07T02:51:17;24.23;;;18.58;;
39404;SDS011;25121;51.090;17.038;2023-04-07T02:52:41;28.95;;;19.25;;
39404;SDS011;25121;51.090;17.038;2023-04-07T02:54:06;27.02;;;18.98;;
39404;SDS011;25121;51.090;17.038;2023-04-07T02:55:28;24.33;;;18.02;;
39404;SDS011;25121;51.090;17.038;2023-04-07T02:56:49;27.33;;;19.60;;
39404;SDS011;25121;51.090;17.038;2023-04-07T02:58:12;25.13;;;18.65;;
39404;SDS011;25121;51.090;17.038;2023-04-07T02:59:39;30.00;;;18.35;;
39404;SDS011;25121;51.090;17.038;2023-04-07T03:01:05;28.85;;;18.98;;
39404;SDS011;25121;51.090;17.038;2023-04-07T03:02:28;25.52;;;18.23;;
39404;SDS011;25121;51.090;17.038;2023-04-07T03:05:17;24.77;;;17.45;;
39404;SDS011;25121;51.090;17.038;2023-04-07T03:06:38;26.13;;;17.95;;
39404;SDS011;25121;51.090;17.038;2023-04-07T03:08:05;28.13;;;18.77;;
39404;SDS011;25121;51.090;17.038;2023-04-07T03:09:32;24.77;;;18.15;;
39404;SDS011;25121;51.090;17.038;2023-04-07T03:10:53;26.80;;;17.88;;
39404;SDS011;25121;51.090;17.038;2023-04-07T03:12:21;25.45;;;17.17;;
39404;SDS011;25121;51.090;17.038;2023-04-07T03:13:43;25.15;;;17.92;;
39404;SDS011;25121;51.090;17.038;2023-04-07T03:15:16;27.25;;;18.58;;
39404;SDS011;25121;51.090;17.038;2023-04-07T03:16:40;31.10;;;18.02;;
39404;SDS011;25121;51.090;17.038;2023-04-07T03:18:05;32.35;;;18.83;;
39404;SDS011;25121;51.090;17.038;2023-04-07T03:19:30;27.45;;;18.02;;
39404;SDS011;25121;51.090;17.038;2023-04-07T03:21:15;25.42;;;17.83;;
39404;SDS011;25121;51.090;17.038;2023-04-07T03:22:38;27.30;;;20.20;;
39404;SDS011;25121;51.090;17.038;2023-04-07T03:24:12;28.38;;;19.25;;
39404;SDS011;25121;51.090;17.038;2023-04-07T03:25:41;29.63;;;20.45;;
39404;SDS011;25121;51.090;17.038;2023-04-07T03:27:06;30.23;;;20.80;;
39404;SDS011;25121;51.090;17.038;2023-04-07T03:28:36;30.63;;;21.88;;
39404;SDS011;25121;51.090;17.038;2023-04-07T03:30:04;33.25;;;21.15;;
39404;SDS011;25121;51.090;17.038;2023-04-07T03:31:28;32.20;;;21.35;;
39404;SDS011;25121;51.090;17.038;2023-04-07T03:32:51;33.60;;;22.95;;
39404;SDS011;25121;51.090;17.038;2023-04-07T03:34:13;30.20;;;22.10;;
39404;SDS011;25121;51.090;17.038;2023-04-07T03:35:53;33.80;;;21.83;;
39404;SDS011;25121;51.090;17.038;2023-04-07T03:37:17;32.63;;;23.08;;
39404;SDS011;25121;51.090;17.038;2023-04-07T03:38:41;33.47;;;23.48;;
39404;SDS011;25121;51.090;17.038;2023-04-07T03:40:06;37.05;;;23.23;;
39404;SDS011;25121;51.090;17.038;2023-04-07T03:41:29;32.17;;;21.80;;
39404;SDS011;25121;51.090;17.038;2023-04-07T03:42:52;36.17;;;23.98;;
39404;SDS011;25121;51.090;17.038;2023-04-07T03:44:16;33.15;;;24.30;;
39404;SDS011;25121;51.090;17.038;2023-04-07T03:45:44;36.22;;;24.40;;
39404;SDS011;25121;51.090;17.038;2023-04-07T03:47:08;34.38;;;23.02;;
39404;SDS011;25121;51.090;17.038;2023-04-07T03:48:31;35.60;;;23.75;;
39404;SDS011;25121;51.090;17.038;2023-04-07T03:49:58;31.63;;;22.50;;
39404;SDS011;25121;51.090;17.038;2023-04-07T03:51:21;35.05;;;23.88;;
39404;SDS011;25121;51.090;17.038;2023-04-07T03:52:47;30.10;;;21.92;;
39404;SDS011;25121;51.090;17.038;2023-04-07T03:54:16;32.83;;;22.73;;
39404;SDS011;25121;51.090;17.038;2023-04-07T03:55:37;34.72;;;23.42;;
39404;SDS011;25121;51.090;17.038;2023-04-07T03:57:07;36.42;;;23.65;;
39404;SDS011;25121;51.090;17.038;2023-04-07T03:58:35;35.35;;;25.10;;
39404;SDS011;25121;51.090;17.038;2023-04-07T03:59:56;33.38;;;22.73;;
39404;SDS011;25121;51.090;17.038;2023-04-07T04:01:25;28.52;;;21.33;;
39404;SDS011;25121;51.090;17.038;2023-04-07T04:02:50;32.00;;;21.65;;
39404;SDS011;25121;51.090;17.038;2023-04-07T04:04:13;33.72;;;22.02;;
39404;SDS011;25121;51.090;17.038;2023-04-07T04:05:35;37.55;;;22.95;;
39404;SDS011;25121;51.090;17.038;2023-04-07T04:07:00;33.88;;;22.77;;
39404;SDS011;25121;51.090;17.038;2023-04-07T04:09:52;31.55;;;22.35;;
39404;SDS011;25121;51.090;17.038;2023-04-07T04:11:16;30.42;;;21.33;;
39404;SDS011;25121;51.090;17.038;2023-04-07T04:12:46;34.65;;;23.38;;
39404;SDS011;25121;51.090;17.038;2023-04-07T04:14:14;34.92;;;22.23;;
39404;SDS011;25121;51.090;17.038;2023-04-07T04:15:55;32.40;;;23.95;;
39404;SDS011;25121;51.090;17.038;2023-04-07T04:17:17;32.08;;;23.13;;
39404;SDS011;25121;51.090;17.038;2023-04-07T04:18:39;32.28;;;22.60;;
39404;SDS011;25121;51.090;17.038;2023-04-07T04:20:04;32.83;;;21.80;;
39404;SDS011;25121;51.090;17.038;2023-04-07T04:21:34;28.80;;;21.52;;
39404;SDS011;25121;51.090;17.038;2023-04-07T04:23:01;34.03;;;21.98;;
39404;SDS011;25121;51.090;17.038;2023-04-07T04:24:26;36.20;;;22.90;;
39404;SDS011;25121;51.090;17.038;2023-04-07T04:25:52;32.42;;;22.58;;
39404;SDS011;25121;51.090;17.038;2023-04-07T04:27:20;32.33;;;21.92;;
39404;SDS011;25121;51.090;17.038;2023-04-07T04:28:48;31.42;;;22.73;;
39404;SDS011;25121;51.090;17.038;2023-04-07T04:30:19;32.17;;;22.40;;
39404;SDS011;25121;51.090;17.038;2023-04-07T04:31:53;30.17;;;21.13;;
39404;SDS011;25121;51.090;17.038;2023-04-07T04:33:14;33.07;;;22.17;;
39404;SDS011;25121;51.090;17.038;2023-04-07T04:34:47;32.63;;;22.17;;
39404;SDS011;25121;51.090;17.038;2023-04-07T04:36:10;26.58;;;20.20;;
39404;SDS011;25121;51.090;17.038;2023-04-07T04:37:31;30.63;;;21.48;;
39404;SDS011;25121;51.090;17.038;2023-04-07T04:39:01;29.58;;;20.67;;
39404;SDS011;25121;51.090;17.038;2023-04-07T04:40:24;32.42;;;20.92;;
39404;SDS011;25121;51.090;17.038;2023-04-07T04:41:47;31.63;;;21.73;;
39404;SDS011;25121;51.090;17.038;2023-04-07T04:43:10;31.92;;;22.25;;
39404;SDS011;25121;51.090;17.038;2023-04-07T04:44:37;31.10;;;21.20;;
39404;SDS011;25121;51.090;17.038;2023-04-07T04:45:59;29.15;;;21.75;;
39404;SDS011;25121;51.090;17.038;2023-04-07T04:47:33;23.10;;;16.55;;
39404;SDS011;25121;51.090;17.038;2023-04-07T04:50:24;24.58;;;17.17;;
39404;SDS011;25121;51.090;17.038;2023-04-07T04:53:12;22.02;;;15.65;;
39404;SDS011;25121;51.090;17.038;2023-04-07T04:54:53;23.90;;;16.30;;
39404;SDS011;25121;51.090;17.038;2023-04-07T04:56:16;22.13;;;16.48;;
39404;SDS011;25121;51.090;17.038;2023-04-07T04:57:40;24.55;;;17.23;;
39404;SDS011;25121;51.090;17.038;2023-04-07T04:59:06;25.38;;;16.80;;
39404;SDS011;25121;51.090;17.038;2023-04-07T05:00:52;25.27;;;16.55;;
39404;SDS011;25121;51.090;17.038;2023-04-07T05:02:24;21.73;;;15.48;;
39404;SDS011;25121;51.090;17.038;2023-04-07T05:03:49;26.27;;;15.27;;
39404;SDS011;25121;51.090;17.038;2023-04-07T05:05:16;20.95;;;15.48;;
39404;SDS011;25121;51.090;17.038;2023-04-07T05:06:38;23.63;;;15.57;;
39404;SDS011;25121;51.090;17.038;2023-04-07T05:08:07;26.45;;;16.77;;
39404;SDS011;25121;51.090;17.038;2023-04-07T05:09:32;25.10;;;15.30;;
39404;SDS011;25121;51.090;17.038;2023-04-07T05:10:57;22.35;;;15.55;;
39404;SDS011;25121;51.090;17.038;2023-04-07T05:13:13;23.10;;;15.02;;
39404;SDS011;25121;51.090;17.038;2023-04-07T05:15:01;24.48;;;16.58;;
39404;SDS011;25121;51.090;17.038;2023-04-07T05:16:25;22.77;;;15.50;;
39404;SDS011;25121;51.090;17.038;2023-04-07T05:17:48;24.38;;;16.23;;
39404;SDS011;25121;51.090;17.038;2023-04-07T05:19:17;21.38;;;14.70;;
39404;SDS011;25121;51.090;17.038;2023-04-07T05:21:02;24.17;;;15.23;;
39404;SDS011;25121;51.090;17.038;2023-04-07T05:22:28;25.65;;;15.88;;
39404;SDS011;25121;51.090;17.038;2023-04-07T05:23:51;23.38;;;15.80;;
39404;SDS011;25121;51.090;17.038;2023-04-07T05:25:42;24.45;;;16.52;;
39404;SDS011;25121;51.090;17.038;2023-04-07T05:31:07;20.42;;;13.82;;
39404;SDS011;25121;51.090;17.038;2023-04-07T05:32:59;22.30;;;15.23;;
39404;SDS011;25121;51.090;17.038;2023-04-07T05:34:48;24.15;;;15.48;;
39404;SDS011;25121;51.090;17.038;2023-04-07T05:36:14;21.75;;;15.82;;
39404;SDS011;25121;51.090;17.038;2023-04-07T05:37:38;26.13;;;16.58;;
39404;SDS011;25121;51.090;17.038;2023-04-07T05:39:10;24.77;;;16.33;;
39404;SDS011;25121;51.090;17.038;2023-04-07T05:40:50;23.83;;;16.98;;
39404;SDS011;25121;51.090;17.038;2023-04-07T05:42:23;22.88;;;15.73;;
39404;SDS011;25121;51.090;17.038;2023-04-07T05:45:43;26.15;;;17.40;;
39404;SDS011;25121;51.090;17.038;2023-04-07T05:47:10;21.95;;;16.45;;
39404;SDS011;25121;51.090;17.038;2023-04-07T05:48:36;25.48;;;16.42;;
39404;SDS011;25121;51.090;17.038;2023-04-07T05:49:57;34.13;;;20.37;;
39404;SDS011;25121;51.090;17.038;2023-04-07T05:51:20;28.23;;;18.98;;
39404;SDS011;25121;51.090;17.038;2023-04-07T05:52:46;24.67;;;16.58;;
39404;SDS011;25121;51.090;17.038;2023-04-07T05:54:17;26.38;;;17.17;;
39404;SDS011;25121;51.090;17.038;2023-04-07T05:55:41;24.80;;;16.92;;
39404;SDS011;25121;51.090;17.038;2023-04-07T05:57:11;21.75;;;15.90;;
39404;SDS011;25121;51.090;17.038;2023-04-07T05:58:38;23.83;;;15.77;;
39404;SDS011;25121;51.090;17.038;2023-04-07T06:00:02;21.80;;;15.77;;
39404;SDS011;25121;51.090;17.038;2023-04-07T06:01:33;23.75;;;16.15;;
39404;SDS011;25121;51.090;17.038;2023-04-07T06:03:01;26.23;;;16.02;;
39404;SDS011;25121;51.090;17.038;2023-04-07T06:05:02;23.92;;;15.55;;
39404;SDS011;25121;51.090;17.038;2023-04-07T06:06:28;22.40;;;16.15;;
39404;SDS011;25121;51.090;17.038;2023-04-07T06:07:56;23.98;;;15.43;;
39404;SDS011;25121;51.090;17.038;2023-04-07T06:09:20;23.10;;;16.20;;
39404;SDS011;25121;51.090;17.038;2023-04-07T06:10:42;24.48;;;15.95;;
39404;SDS011;25121;51.090;17.038;2023-04-07T06:12:06;26.83;;;16.70;;
39404;SDS011;25121;51.090;17.038;2023-04-07T06:13:31;24.30;;;16.90;;
39404;SDS011;25121;51.090;17.038;2023-04-07T06:15:09;24.17;;;16.40;;
39404;SDS011;25121;51.090;17.038;2023-04-07T06:17:36;28.02;;;16.20;;
39404;SDS011;25121;51.090;17.038;2023-04-07T06:20:09;25.35;;;16.02;;
39404;SDS011;25121;51.090;17.038;2023-04-07T06:22:04;23.02;;;15.20;;
39404;SDS011;25121;51.090;17.038;2023-04-07T06:24:41;22.65;;;16.48;;
39404;SDS011;25121;51.090;17.038;2023-04-07T06:32:00;25.42;;;17.60;;
39404;SDS011;25121;51.090;17.038;2023-04-07T06:33:53;25.63;;;17.90;;
39404;SDS011;25121;51.090;17.038;2023-04-07T06:36:25;23.63;;;15.52;;
39404;SDS011;25121;51.090;17.038;2023-04-07T06:37:58;25.38;;;16.52;;
39404;SDS011;25121;51.090;17.038;2023-04-07T06:39:34;27.88;;;17.45;;
39404;SDS011;25121;51.090;17.038;2023-04-07T06:41:07;27.58;;;16.75;;
39404;SDS011;25121;51.090;17.038;2023-04-07T06:42:36;24.48;;;16.33;;
39404;SDS011;25121;51.090;17.038;2023-04-07T06:44:37;20.88;;;15.50;;
39404;SDS011;25121;51.090;17.038;2023-04-07T06:46:08;26.40;;;16.10;;
39404;SDS011;25121;51.090;17.038;2023-04-07T06:52:43;20.92;;;14.98;;
39404;SDS011;25121;51.090;17.038;2023-04-07T07:04:21;25.35;;;15.55;;
39404;SDS011;25121;51.090;17.038;2023-04-07T07:14:36;24.55;;;16.48;;
39404;SDS011;25121;51.090;17.038;2023-04-07T07:16:14;23.63;;;16.02;;
39404;SDS011;25121;51.090;17.038;2023-04-07T07:17:40;23.60;;;16.05;;
39404;SDS011;25121;51.090;17.038;2023-04-07T07:19:13;22.77;;;15.15;;
39404;SDS011;25121;51.090;17.038;2023-04-07T07:26:16;22.98;;;14.82;;
39404;SDS011;25121;51.090;17.038;2023-04-07T07:26:43;21.25;;;15.02;;
39404;SDS011;25121;51.090;17.038;2023-04-07T07:28:08;21.33;;;15.35;;
39404;SDS011;25121;51.090;17.038;2023-04-07T07:41:17;24.70;;;15.25;;
39404;SDS011;25121;51.090;17.038;2023-04-07T07:42:51;19.85;;;14.05;;
39404;SDS011;25121;51.090;17.038;2023-04-07T07:56:59;22.13;;;14.13;;
39404;SDS011;25121;51.090;17.038;2023-04-07T08:08:19;20.85;;;13.27;;
39404;SDS011;25121;51.090;17.038;2023-04-07T08:09:43;19.38;;;13.75;;
39404;SDS011;25121;51.090;17.038;2023-04-07T08:12:12;20.48;;;13.15;;
39404;SDS011;25121;51.090;17.038;2023-04-07T08:14:02;19.65;;;14.07;;
39404;SDS011;25121;51.090;17.038;2023-04-07T08:15:50;20.02;;;13.18;;
39404;SDS011;25121;51.090;17.038;2023-04-07T08:17:18;21.40;;;14.00;;
39404;SDS011;25121;51.090;17.038;2023-04-07T08:19:01;19.27;;;13.48;;
39404;SDS011;25121;51.090;17.038;2023-04-07T08:26:37;17.63;;;12.52;;
39404;SDS011;25121;51.090;17.038;2023-04-07T08:52:52;19.05;;;12.45;;
39404;SDS011;25121;51.090;17.038;2023-04-07T08:54:52;17.70;;;12.32;;
39404;SDS011;25121;51.090;17.038;2023-04-07T09:00:06;19.00;;;13.07;;
39404;SDS011;25121;51.090;17.038;2023-04-07T09:04:45;19.38;;;12.90;;
39404;SDS011;25121;51.090;17.038;2023-04-07T09:07:34;21.83;;;13.75;;
39404;SDS011;25121;51.090;17.038;2023-04-07T09:09:06;20.52;;;12.52;;
39404;SDS011;25121;51.090;17.038;2023-04-07T09:10:39;19.63;;;13.05;;
39404;SDS011;25121;51.090;17.038;2023-04-07T09:12:13;18.65;;;12.38;;
39404;SDS011;25121;51.090;17.038;2023-04-07T09:13:37;16.38;;;12.05;;
39404;SDS011;25121;51.090;17.038;2023-04-07T09:15:01;19.27;;;13.32;;
39404;SDS011;25121;51.090;17.038;2023-04-07T09:16:28;21.25;;;12.93;;
39404;SDS011;25121;51.090;17.038;2023-04-07T09:17:55;16.80;;;12.50;;
39404;SDS011;25121;51.090;17.038;2023-04-07T09:19:43;23.48;;;13.70;;
39404;SDS011;25121;51.090;17.038;2023-04-07T09:21:51;15.07;;;11.13;;
39404;SDS011;25121;51.090;17.038;2023-04-07T09:23:30;15.52;;;11.93;;
39404;SDS011;25121;51.090;17.038;2023-04-07T09:25:15;16.30;;;10.98;;
39404;SDS011;25121;51.090;17.038;2023-04-07T09:26:43;16.83;;;11.32;;
39404;SDS011;25121;51.090;17.038;2023-04-07T09:28:06;17.90;;;11.18;;
39404;SDS011;25121;51.090;17.038;2023-04-07T09:29:34;16.38;;;12.00;;
39404;SDS011;25121;51.090;17.038;2023-04-07T09:31:30;19.05;;;11.13;;
39404;SDS011;25121;51.090;17.038;2023-04-07T09:33:06;17.33;;;11.85;;
39404;SDS011;25121;51.090;17.038;2023-04-07T09:34:30;16.65;;;11.18;;
39404;SDS011;25121;51.090;17.038;2023-04-07T09:35:55;17.88;;;11.95;;
39404;SDS011;25121;51.090;17.038;2023-04-07T09:37:21;16.25;;;11.40;;
39404;SDS011;25121;51.090;17.038;2023-04-07T09:39:09;19.80;;;13.40;;
39404;SDS011;25121;51.090;17.038;2023-04-07T09:40:34;20.52;;;12.60;;
39404;SDS011;25121;51.090;17.038;2023-04-07T09:41:57;25.25;;;11.80;;
39404;SDS011;25121;51.090;17.038;2023-04-07T09:43:19;19.08;;;12.10;;
39404;SDS011;25121;51.090;17.038;2023-04-07T09:44:42;17.17;;;12.38;;
39404;SDS011;25121;51.090;17.038;2023-04-07T09:46:06;19.30;;;12.75;;
39404;SDS011;25121;51.090;17.038;2023-04-07T09:47:46;17.48;;;12.18;;
39404;SDS011;25121;51.090;17.038;2023-04-07T09:49:17;16.48;;;12.05;;
39404;SDS011;25121;51.090;17.038;2023-04-07T09:50:47;15.75;;;11.93;;
39404;SDS011;25121;51.090;17.038;2023-04-07T09:52:48;20.40;;;12.50;;
39404;SDS011;25121;51.090;17.038;2023-04-07T09:54:15;19.25;;;12.95;;
39404;SDS011;25121;51.090;17.038;2023-04-07T09:55:55;21.10;;;12.55;;
39404;SDS011;25121;51.090;17.038;2023-04-07T09:57:27;19.58;;;12.82;;
39404;SDS011;25121;51.090;17.038;2023-04-07T09:58:50;22.08;;;13.30;;
39404;SDS011;25121;51.090;17.038;2023-04-07T10:00:14;23.65;;;13.63;;
39404;SDS011;25121;51.090;17.038;2023-04-07T10:02:06;17.08;;;12.57;;
39404;SDS011;25121;51.090;17.038;2023-04-07T10:07:47;19.98;;;12.13;;
39404;SDS011;25121;51.090;17.038;2023-04-07T10:09:19;17.93;;;12.97;;
39404;SDS011;25121;51.090;17.038;2023-04-07T10:10:44;18.95;;;12.20;;
39404;SDS011;25121;51.090;17.038;2023-04-07T10:12:09;18.50;;;11.30;;
39404;SDS011;25121;51.090;17.038;2023-04-07T10:16:54;14.63;;;11.20;;
39404;SDS011;25121;51.090;17.038;2023-04-07T10:18:31;17.67;;;12.63;;
39404;SDS011;25121;51.090;17.038;2023-04-07T10:20:56;17.88;;;12.43;;
39404;SDS011;25121;51.090;17.038;2023-04-07T10:25:03;20.98;;;11.82;;
39404;SDS011;25121;51.090;17.038;2023-04-07T10:26:58;20.08;;;11.65;;
39404;SDS011;25121;51.090;17.038;2023-04-07T10:29:24;19.98;;;12.52;;
39404;SDS011;25121;51.090;17.038;2023-04-07T10:31:23;16.23;;;11.18;;
39404;SDS011;25121;51.090;17.038;2023-04-07T10:32:50;14.87;;;11.93;;
39404;SDS011;25121;51.090;17.038;2023-04-07T10:39:25;21.45;;;12.63;;
39404;SDS011;25121;51.090;17.038;2023-04-07T10:44:48;18.48;;;11.93;;
39404;SDS011;25121;51.090;17.038;2023-04-07T10:52:42;17.95;;;12.73;;
39404;SDS011;25121;51.090;17.038;2023-04-07T10:58:23;18.92;;;12.18;;
39404;SDS011;25121;51.090;17.038;2023-04-07T11:02:53;17.92;;;12.02;;
39404;SDS011;25121;51.090;17.038;2023-04-07T11:04:17;17.27;;;12.23;;
39404;SDS011;25121;51.090;17.038;2023-04-07T11:05:51;19.17;;;13.25;;
39404;SDS011;25121;51.090;17.038;2023-04-07T11:08:16;18.02;;;13.05;;
39404;SDS011;25121;51.090;17.038;2023-04-07T11:10:10;14.55;;;10.98;;
39404;SDS011;25121;51.090;17.038;2023-04-07T11:12:13;16.27;;;11.45;;
39404;SDS011;25121;51.090;17.038;2023-04-07T11:13:52;17.48;;;12.07;;
39404;SDS011;25121;51.090;17.038;2023-04-07T11:15:20;15.30;;;11.65;;
39404;SDS011;25121;51.090;17.038;2023-04-07T11:22:45;17.80;;;12.80;;
39404;SDS011;25121;51.090;17.038;2023-04-07T11:26:56;16.77;;;11.45;;
39404;SDS011;25121;51.090;17.038;2023-04-07T11:28:21;14.10;;;10.50;;
39404;SDS011;25121;51.090;17.038;2023-04-07T11:30:06;16.85;;;12.23;;
39404;SDS011;25121;51.090;17.038;2023-04-07T11:31:59;15.95;;;11.43;;
39404;SDS011;25121;51.090;17.038;2023-04-07T11:34:34;14.38;;;10.45;;